Rosenberg's Hourly Summary for Sunday, April 16, 2017
Hour Temp
(f)
RH
(%)
Solar Rad.
(MJ/m2)
Rainfall
(in)
Wind
(mph)
4/16/2017 12:00 AM 65 92 0 0 1.86
4/16/2017 1:00 AM 65 93 0 0 0.57
4/16/2017 2:00 AM 63 93 0 0 0.57
4/16/2017 3:00 AM 63 94 0 0 0.57
4/16/2017 4:00 AM 62 95 0.01 0 0.74
4/16/2017 5:00 AM 61 95 0.01 0 1.06
4/16/2017 6:00 AM 61 95 0.16 0 2.15
4/16/2017 7:00 AM 62 95 0.46 0 4.39
4/16/2017 8:00 AM 63 93 1.06 0 6.09
4/16/2017 9:00 AM 70 75 1.76 0 6.26
4/16/2017 10:00 AM 75 64 2.42 0 6.83
4/16/2017 11:00 AM 77 61 1.9 0 5.99
4/16/2017 12:00 PM 79 56 2.5 0 7.27
4/16/2017 1:00 PM 79 55 2.79 0 7.7
4/16/2017 2:00 PM 79 54 2.1 0 8.04
4/16/2017 3:00 PM 79 55 1.43 0 6.53
4/16/2017 4:00 PM 77 56 0.67 0 5.91
4/16/2017 5:00 PM 76 58 0.46 0 5.46
4/16/2017 6:00 PM 75 64 0.24 0 5.86
4/16/2017 7:00 PM 72 74 0 0 3.44
4/16/2017 8:00 PM 70 81 0 0 1.31
4/16/2017 9:00 PM 68 86 0 0 0.57
4/16/2017 10:00 PM 66 89 0 0 0.65
4/16/2017 11:00 PM 65 91 0 0 0.6
Data Summary 69 77 17.97 0.00 3.77